createdAt,value
2017-10-12T00:02:24.181Z,97388.44
2017-10-12T00:04:51.777Z,97386.31
2017-10-12T00:07:20.808Z,97388.75
2017-10-12T00:09:48.388Z,97387.03
2017-10-12T00:12:15.936Z,97387.81
2017-10-12T00:14:43.497Z,97390.74
2017-10-12T00:17:11.070Z,97390.62
2017-10-12T00:19:38.639Z,97397.30
2017-10-12T00:22:06.577Z,97399.00
2017-10-12T00:24:34.149Z,97393.91
2017-10-12T00:27:01.745Z,97399.16
2017-10-12T00:29:29.341Z,97395.71
2017-10-12T00:31:56.935Z,97402.90
2017-10-12T00:34:24.540Z,97402.03
2017-10-12T00:36:52.097Z,97408.73
2017-10-12T00:39:20.005Z,97409.53
2017-10-12T00:41:47.971Z,97408.27
2017-10-12T00:44:15.542Z,97412.88
2017-10-12T00:46:43.157Z,97409.91
2017-10-12T00:49:10.738Z,97412.84
2017-10-12T00:51:38.336Z,97412.75
2017-10-12T00:54:06.257Z,97418.95
2017-10-12T00:56:33.821Z,97425.15
2017-10-12T00:59:01.414Z,97411.70
2017-10-12T01:01:28.989Z,97410.80
2017-10-12T01:03:57.570Z,97415.00
2017-10-12T01:06:25.137Z,97423.42
2017-10-12T01:08:52.697Z,97418.30
2017-10-12T01:11:20.661Z,97415.73
2017-10-12T01:13:48.216Z,97409.75
2017-10-12T01:16:16.171Z,97415.58
2017-10-12T01:18:44.152Z,97413.88
2017-10-12T01:21:12.108Z,97420.64
2017-10-12T01:23:39.693Z,97419.77
2017-10-12T01:26:07.416Z,97416.81
2017-10-12T01:28:35.006Z,97413.78
2017-10-12T01:31:02.571Z,97412.02
2017-10-12T01:33:31.694Z,97413.66
2017-10-12T01:35:59.265Z,97413.62
2017-10-12T01:38:26.819Z,97414.89
2017-10-12T01:40:54.384Z,97410.66
2017-10-12T01:43:21.951Z,97407.67
2017-10-12T01:45:49.527Z,97409.77
2017-10-12T01:48:29.440Z,97410.63
2017-10-12T01:50:57.776Z,97413.98
2017-10-12T01:53:25.312Z,97416.52
2017-10-12T01:55:52.872Z,97407.30
2017-10-12T01:58:20.454Z,97403.91
2017-10-12T02:00:48.013Z,97408.96
2017-10-12T02:03:16.009Z,97413.62
2017-10-12T02:05:44.150Z,97416.98
2017-10-12T02:08:11.835Z,97416.55
2017-10-12T02:10:39.506Z,97419.84
2017-10-12T02:13:07.060Z,97418.48
2017-10-12T02:15:34.673Z,97418.35
2017-10-12T02:18:02.218Z,97425.73
2017-10-12T02:20:29.800Z,97426.83
2017-10-12T02:22:57.357Z,97436.87
2017-10-12T02:25:24.913Z,97427.13
2017-10-12T02:27:52.667Z,97428.75
2017-10-12T02:30:20.231Z,97432.91
2017-10-12T02:32:48.153Z,97432.84
2017-10-12T02:35:15.714Z,97426.41
2017-10-12T02:37:43.333Z,97431.33
2017-10-12T02:40:10.905Z,97425.34
2017-10-12T02:42:38.455Z,97431.77
2017-10-12T02:45:06.171Z,97429.34
2017-10-12T02:47:33.751Z,97425.98
2017-10-12T02:50:01.691Z,97418.83
2017-10-12T02:52:29.242Z,97425.58
2017-10-12T02:54:56.819Z,97432.73
2017-10-12T02:57:24.380Z,97428.51
2017-10-12T02:59:51.960Z,97433.06
2017-10-12T03:02:19.551Z,97428.88
2017-10-12T03:04:47.082Z,97431.80
2017-10-12T03:07:14.668Z,97442.70
2017-10-12T03:09:42.251Z,97442.34
2017-10-12T03:12:09.827Z,97429.66
2017-10-12T03:14:37.431Z,97431.66
2017-10-12T03:17:05.004Z,97431.19
2017-10-12T03:19:32.552Z,97438.34
2017-10-12T03:22:00.099Z,97435.77
2017-10-12T03:24:27.851Z,97432.81
2017-10-12T03:26:55.408Z,97424.30
2017-10-12T03:29:23.355Z,97423.79
2017-10-12T03:31:50.919Z,97428.77
2017-10-12T03:34:18.526Z,97430.43
2017-10-12T03:36:46.135Z,97427.00
2017-10-12T03:39:13.726Z,97429.89
2017-10-12T03:41:41.300Z,97431.95
2017-10-12T03:44:09.281Z,97428.05
2017-10-12T03:46:37.191Z,97426.71
2017-10-12T03:49:04.763Z,97422.41
2017-10-12T03:51:32.317Z,97432.92
2017-10-12T03:53:59.925Z,97433.34
2017-10-12T03:56:27.809Z,97431.73
2017-10-12T03:58:55.395Z,97432.20
2017-10-12T04:01:23.332Z,97435.08
2017-10-12T04:03:51.343Z,97433.06
2017-10-12T04:06:18.935Z,97428.02
2017-10-12T04:08:46.504Z,97429.70
2017-10-12T04:11:14.727Z,97435.23
2017-10-12T04:13:42.284Z,97439.45
2017-10-12T04:16:09.863Z,97441.58
2017-10-12T04:18:37.477Z,97434.80
2017-10-12T04:21:05.393Z,97433.50
2017-10-12T04:23:33.441Z,97432.67
2017-10-12T04:26:01.329Z,97428.84
2017-10-12T04:28:28.939Z,97424.19
2017-10-12T04:30:56.511Z,97418.27
2017-10-12T04:33:24.978Z,97431.73
2017-10-12T04:35:52.573Z,97430.06
2017-10-12T04:38:20.530Z,97437.45
2017-10-12T04:40:48.131Z,97444.41
2017-10-12T04:43:15.701Z,97442.72
2017-10-12T04:45:43.267Z,97441.06
2017-10-12T04:48:10.843Z,97442.28
2017-10-12T04:50:38.402Z,97444.81
2017-10-12T04:53:05.977Z,97447.77
2017-10-12T04:55:33.537Z,97443.62
2017-10-12T04:58:01.241Z,97446.62
2017-10-12T05:00:29.147Z,97445.75
2017-10-12T05:02:57.235Z,97450.88
2017-10-12T05:05:24.823Z,97455.06
2017-10-12T05:07:52.421Z,97450.02
2017-10-12T05:10:20.376Z,97447.09
2017-10-12T05:12:48.307Z,97446.62
2017-10-12T05:15:16.326Z,97449.14
2017-10-12T05:17:44.088Z,97453.01
2017-10-12T05:20:11.945Z,97455.38
2017-10-12T05:22:39.544Z,97440.63
2017-10-12T05:25:07.105Z,97443.23
2017-10-12T05:27:34.703Z,97442.39
2017-10-12T05:30:02.348Z,97444.09
2017-10-12T05:32:30.255Z,97441.25
2017-10-12T05:34:57.812Z,97451.03
2017-10-12T05:37:25.359Z,97456.19
2017-10-12T05:39:52.958Z,97449.13
2017-10-12T05:42:21.116Z,97470.52
2017-10-12T05:44:48.930Z,97465.63
2017-10-12T05:47:16.503Z,97453.09
2017-10-12T05:49:44.093Z,97459.83
2017-10-12T05:52:11.676Z,97464.92
2017-10-12T05:54:39.327Z,97460.81
2017-10-12T05:57:06.907Z,97467.09
2017-10-12T05:59:34.623Z,97465.39
2017-10-12T06:02:02.224Z,97470.84
2017-10-12T06:04:30.183Z,97464.59
2017-10-12T06:06:59.029Z,97468.50
2017-10-12T06:09:26.762Z,97477.81
2017-10-12T06:11:54.328Z,97484.05
2017-10-12T06:14:23.350Z,97488.31
2017-10-12T06:16:50.904Z,97486.58
2017-10-12T06:19:18.521Z,97494.80
2017-10-12T06:21:46.127Z,97496.92
2017-10-12T06:24:13.688Z,97494.12
2017-10-12T06:26:41.906Z,97496.21
2017-10-12T06:29:09.476Z,97500.16
2017-10-12T06:31:37.755Z,97506.94
2017-10-12T06:34:05.350Z,97498.28
2017-10-12T06:36:33.273Z,97507.75
2017-10-12T06:39:01.062Z,97496.48
2017-10-12T06:41:29.191Z,97503.82
2017-10-12T06:43:57.330Z,97508.23
2017-10-12T06:46:24.913Z,97508.02
2017-10-12T06:48:52.543Z,97506.92
2017-10-12T06:51:20.276Z,97507.11
2017-10-12T06:53:47.870Z,97517.83
2017-10-12T06:56:15.460Z,97520.17
2017-10-12T06:58:43.028Z,97520.81
2017-10-12T07:01:10.616Z,97524.75
2017-10-12T07:03:38.233Z,97538.00
2017-10-12T07:06:05.826Z,97540.77
2017-10-12T07:08:33.398Z,97538.91
2017-10-12T07:11:00.999Z,97526.95
2017-10-12T07:13:28.541Z,97531.44
2017-10-12T07:15:56.152Z,97533.39
2017-10-12T07:18:23.723Z,97533.61
2017-10-12T07:20:51.656Z,97532.25
2017-10-12T07:23:19.256Z,97534.67
2017-10-12T07:25:46.843Z,97537.56
2017-10-12T07:28:14.440Z,97538.75
2017-10-12T07:30:42.434Z,97546.23
2017-10-12T07:33:10.040Z,97548.64
2017-10-12T07:35:37.663Z,97549.83
2017-10-12T07:38:05.239Z,97552.57
2017-10-12T07:40:32.829Z,97557.44
2017-10-12T07:43:00.723Z,97561.55
2017-10-12T07:45:28.852Z,97550.70
2017-10-12T07:47:59.438Z,97558.48
2017-10-12T07:50:27.041Z,97559.55
2017-10-12T07:52:54.615Z,97550.88
2017-10-12T07:55:22.193Z,97563.36
2017-10-12T07:57:51.389Z,97559.08
2017-10-12T08:00:18.968Z,97561.50
2017-10-12T08:02:47.970Z,97566.36
2017-10-12T08:05:15.674Z,97565.63
2017-10-12T08:07:43.256Z,97564.12
2017-10-12T08:10:10.850Z,97563.88
2017-10-12T08:12:38.736Z,97567.88
2017-10-12T08:15:06.353Z,97567.27
2017-10-12T08:17:34.608Z,97572.23
2017-10-12T08:20:02.438Z,97572.63
2017-10-12T08:22:30.027Z,97569.05
2017-10-12T08:24:57.586Z,97575.58
2017-10-12T08:27:25.234Z,97575.20
2017-10-12T08:29:52.800Z,97570.99
2017-10-12T08:32:20.418Z,97576.56
2017-10-12T08:34:48.050Z,97569.86
2017-10-12T08:37:15.598Z,97581.83
2017-10-12T08:39:43.511Z,97576.83
2017-10-12T08:42:11.104Z,97583.33
2017-10-12T08:44:40.446Z,97584.22
2017-10-12T08:47:08.095Z,97584.24
2017-10-12T08:49:35.682Z,97583.81
2017-10-12T08:52:03.283Z,97582.97
2017-10-12T08:54:30.894Z,97589.39
2017-10-12T08:56:58.483Z,97590.77
2017-10-12T08:59:26.040Z,97589.52
2017-10-12T09:01:53.605Z,97590.42
2017-10-12T09:04:21.172Z,97596.83
2017-10-12T09:06:48.917Z,97607.05
2017-10-12T09:09:16.784Z,97607.05
2017-10-12T09:11:44.352Z,97611.73
2017-10-12T09:14:11.938Z,97611.30
2017-10-12T09:16:39.519Z,97613.89
2017-10-12T09:19:07.067Z,97612.62
2017-10-12T09:21:36.428Z,97613.06
2017-10-12T09:24:04.071Z,97612.20
2017-10-12T09:26:31.654Z,97613.47
2017-10-12T09:28:59.329Z,97615.19
2017-10-12T09:31:26.920Z,97613.13
2017-10-12T09:33:54.514Z,97621.68
2017-10-12T09:36:22.060Z,97615.68
2017-10-12T09:38:50.169Z,97620.81
2017-10-12T09:41:17.722Z,97607.59
2017-10-12T09:43:45.817Z,97614.00
2017-10-12T09:46:13.796Z,97616.14
2017-10-12T09:48:41.824Z,97618.25
2017-10-12T09:51:09.406Z,97623.37
2017-10-12T09:53:36.967Z,97624.20
2017-10-12T09:56:04.546Z,97626.73
2017-10-12T09:58:32.103Z,97625.80
2017-10-12T10:00:59.746Z,97625.75
2017-10-12T10:03:27.352Z,97635.93
2017-10-12T10:05:55.356Z,97644.30
2017-10-12T10:08:22.950Z,97637.77
2017-10-12T10:10:50.517Z,97647.17
2017-10-12T10:13:18.305Z,97649.77
2017-10-12T10:15:45.876Z,97640.44
2017-10-12T10:18:13.822Z,97655.44
2017-10-12T10:20:41.394Z,97655.03
2017-10-12T10:23:09.342Z,97655.91
2017-10-12T10:25:36.941Z,97659.39
2017-10-12T10:28:04.895Z,97657.73
2017-10-12T10:30:32.842Z,97661.59
2017-10-12T10:33:00.468Z,97668.47
2017-10-12T10:35:28.047Z,97667.23
2017-10-12T10:37:55.624Z,97671.48
2017-10-12T10:40:23.204Z,97668.95
2017-10-12T10:42:50.835Z,97671.09
2017-10-12T10:45:18.404Z,97678.36
2017-10-12T10:47:45.959Z,97673.66
2017-10-12T10:50:14.912Z,97682.23
2017-10-12T10:52:42.481Z,97685.64
2017-10-12T10:55:10.072Z,97686.91
2017-10-12T10:57:37.643Z,97677.05
2017-10-12T11:00:05.242Z,97679.19
2017-10-12T11:02:32.833Z,97673.20
2017-10-12T11:05:00.393Z,97679.19
2017-10-12T11:07:27.991Z,97680.89
2017-10-12T11:09:55.633Z,97683.87
2017-10-12T11:12:23.227Z,97688.15
2017-10-12T11:14:51.281Z,97696.27
2017-10-12T11:17:18.886Z,97686.03
2017-10-12T11:19:46.465Z,97691.59
2017-10-12T11:22:14.575Z,97686.92
2017-10-12T11:24:42.165Z,97694.19
2017-10-12T11:27:09.714Z,97696.72
2017-10-12T11:29:37.681Z,97703.12
2017-10-12T11:32:05.246Z,97704.39
2017-10-12T11:34:32.788Z,97709.10
2017-10-12T11:37:00.374Z,97720.63
2017-10-12T11:39:27.971Z,97721.48
2017-10-12T11:41:55.587Z,97717.65
2017-10-12T11:44:23.150Z,97721.93
2017-10-12T11:46:52.175Z,97722.35
2017-10-12T11:49:19.765Z,97721.07
2017-10-12T11:51:47.366Z,97728.31
2017-10-12T11:54:14.967Z,97720.60
2017-10-12T11:56:42.541Z,97725.31
2017-10-12T11:59:10.113Z,97728.70
2017-10-12T12:01:37.717Z,97723.95
2017-10-12T12:04:05.597Z,97726.95
2017-10-12T12:06:33.217Z,97724.39
2017-10-12T12:09:01.216Z,97719.70
2017-10-12T12:11:28.912Z,97717.13
2017-10-12T12:16:23.346Z,97709.73
2017-10-12T12:18:50.944Z,97708.39
2017-10-12T12:21:18.510Z,97712.59
2017-10-12T12:23:46.121Z,97713.38
2017-10-12T12:26:13.692Z,97710.80
2017-10-12T12:28:41.265Z,97711.12
2017-10-12T12:31:08.898Z,97706.27
2017-10-12T12:33:36.496Z,97706.53
2017-10-12T12:36:04.114Z,97719.41
2017-10-12T12:38:31.711Z,97717.33
2017-10-12T12:40:59.286Z,97722.03
2017-10-12T12:43:26.886Z,97707.93
2017-10-12T12:45:54.462Z,97714.41
2017-10-12T12:48:22.055Z,97714.87
2017-10-12T12:50:49.641Z,97707.67
2017-10-12T12:53:17.596Z,97709.79
2017-10-12T12:55:46.638Z,97714.03
2017-10-12T12:58:14.240Z,97715.35
2017-10-12T13:00:41.841Z,97718.02
2017-10-12T13:03:09.432Z,97711.25
2017-10-12T13:05:37.315Z,97709.97
2017-10-12T13:08:04.883Z,97719.39
2017-10-12T13:10:32.484Z,97722.78
2017-10-12T13:13:00.633Z,97725.76
2017-10-12T13:15:28.219Z,97722.34
2017-10-12T13:17:55.826Z,97732.19
2017-10-12T13:20:24.561Z,97727.52
2017-10-12T13:22:52.560Z,97733.96
2017-10-12T13:25:20.203Z,97731.84
2017-10-12T13:27:47.914Z,97724.62
2017-10-12T13:30:15.534Z,97727.66
2017-10-12T13:32:43.116Z,97725.12
2017-10-12T13:35:11.068Z,97720.82
2017-10-12T13:37:38.683Z,97722.99
2017-10-12T13:40:06.269Z,97723.42
2017-10-12T13:42:33.880Z,97725.56
2017-10-12T13:45:01.512Z,97726.86
2017-10-12T13:47:29.131Z,97723.03
2017-10-12T13:49:56.781Z,97724.77
2017-10-12T13:52:24.454Z,97731.22
2017-10-12T13:54:52.281Z,97733.34
2017-10-12T13:57:20.504Z,97738.49
2017-10-12T13:59:48.486Z,97741.07
2017-10-12T14:02:16.399Z,97744.05
2017-10-12T14:04:44.308Z,97742.34
2017-10-12T14:07:11.905Z,97745.31
2017-10-12T14:09:39.495Z,97734.64
2017-10-12T14:12:07.062Z,97747.44
2017-10-12T14:14:34.657Z,97746.15
2017-10-12T14:17:02.216Z,97748.27
2017-10-12T14:19:29.786Z,97750.84
2017-10-12T14:21:57.577Z,97751.70
2017-10-12T14:24:25.150Z,97746.59
2017-10-12T14:26:52.737Z,97742.30
2017-10-12T14:29:20.308Z,97738.02
2017-10-12T14:31:48.192Z,97732.05
2017-10-12T14:34:15.849Z,97733.33
2017-10-12T14:36:43.417Z,97732.89
2017-10-12T14:39:12.427Z,97731.59
2017-10-12T14:41:40.005Z,97726.02
2017-10-12T14:44:07.948Z,97732.84
2017-10-12T14:46:35.508Z,97728.97
2017-10-12T14:49:03.255Z,97726.41
2017-10-12T14:51:30.821Z,97725.57
2017-10-12T14:53:58.801Z,97733.24
2017-10-12T14:56:26.381Z,97728.97
2017-10-12T14:58:53.941Z,97738.77
2017-10-12T15:01:21.937Z,97737.48
2017-10-12T15:03:49.522Z,97740.77
2017-10-12T15:06:17.112Z,97743.56
2017-10-12T15:08:44.697Z,97745.27
2017-10-12T15:11:12.296Z,97740.58
2017-10-12T15:13:39.897Z,97737.27
2017-10-12T15:16:07.460Z,97734.41
2017-10-12T15:18:35.459Z,97732.71
2017-10-12T15:21:03.034Z,97733.20
2017-10-12T15:23:31.058Z,97728.09
2017-10-12T15:25:59.333Z,97731.07
2017-10-12T15:28:26.939Z,97728.95
2017-10-12T15:30:54.928Z,97734.08
2017-10-12T15:33:22.498Z,97741.79
2017-10-12T15:35:50.079Z,97744.80
2017-10-12T15:38:17.645Z,97748.25
2017-10-12T15:40:45.211Z,97753.81
2017-10-12T15:43:12.898Z,97751.69
2017-10-12T15:45:40.875Z,97759.81
2017-10-12T15:48:08.472Z,97758.98
2017-10-12T15:50:36.106Z,97754.30
2017-10-12T15:53:03.686Z,97764.55
2017-10-12T15:55:31.637Z,97756.44
2017-10-12T15:57:59.239Z,97762.86
2017-10-12T16:00:26.821Z,97767.58
2017-10-12T16:02:54.451Z,97770.98
2017-10-12T16:05:22.032Z,97766.73
2017-10-12T16:07:49.595Z,97762.05
2017-10-12T16:10:17.226Z,97775.73
2017-10-12T16:12:44.814Z,97775.71
2017-10-12T16:15:12.453Z,97777.01
2017-10-12T16:17:40.022Z,97781.66
2017-10-12T16:20:07.643Z,97788.48
2017-10-12T16:23:05.143Z,97794.89
2017-10-12T16:25:02.868Z,97788.46
2017-10-12T16:27:30.685Z,97794.41
2017-10-12T16:29:58.266Z,97796.96
2017-10-12T16:32:26.549Z,97798.23
2017-10-12T16:34:54.158Z,97801.62
2017-10-12T16:37:21.708Z,97801.61
2017-10-12T16:39:49.334Z,97800.30
2017-10-12T16:42:16.938Z,97800.30
2017-10-12T16:44:44.546Z,97804.52
2017-10-12T16:47:12.143Z,97806.63
2017-10-12T16:49:39.711Z,97807.89
2017-10-12T16:52:07.314Z,97812.53
2017-10-12T16:54:34.888Z,97816.28
2017-10-12T16:57:02.845Z,97825.19
2017-10-12T16:59:30.443Z,97824.73
2017-10-12T17:01:58.000Z,97831.92
2017-10-12T17:04:25.585Z,97833.16
2017-10-12T17:06:53.918Z,97831.00
2017-10-12T17:09:21.663Z,97831.39
2017-10-12T17:11:49.261Z,97835.63
2017-10-12T17:14:17.253Z,97840.69
2017-10-12T17:16:44.959Z,97851.75
2017-10-12T17:19:12.606Z,97852.16
2017-10-12T17:21:40.278Z,97853.36
2017-10-12T17:24:08.048Z,97860.59
2017-10-12T17:26:37.404Z,97859.70
2017-10-12T17:29:05.194Z,97863.05
2017-10-12T17:31:33.194Z,97869.83
2017-10-12T17:34:01.062Z,97865.52
2017-10-12T17:36:28.928Z,97869.31
2017-10-12T17:38:56.842Z,97868.00
2017-10-12T17:41:26.003Z,97867.53
2017-10-12T17:46:22.592Z,97867.02
2017-10-12T17:48:50.464Z,97869.10
2017-10-12T17:51:19.093Z,97869.55
2017-10-12T17:53:47.064Z,97864.78
2017-10-12T17:56:16.301Z,97869.45
2017-10-12T17:58:44.598Z,97869.44
2017-10-12T18:01:12.863Z,97872.37
2017-10-12T18:03:42.570Z,97879.12
2017-10-12T18:06:10.805Z,97887.98
2017-10-12T18:08:38.632Z,97884.53
2017-10-12T18:11:06.350Z,97892.95
2017-10-12T18:13:34.410Z,97894.15
2017-10-12T18:16:02.120Z,97885.55
2017-10-12T18:18:30.290Z,97900.80
2017-10-12T18:20:58.110Z,97899.05
2017-10-12T18:23:26.241Z,97900.27
2017-10-12T18:25:54.764Z,97901.53
2017-10-12T18:28:23.422Z,97901.89
2017-10-12T18:30:51.222Z,97907.40
2017-10-12T18:33:20.302Z,97907.80
2017-10-12T18:35:49.497Z,97910.31
2017-10-12T18:38:18.119Z,97908.61
2017-10-12T18:40:47.506Z,97906.00
2017-10-12T18:43:15.392Z,97914.50
2017-10-12T18:45:43.439Z,97911.11
2017-10-12T18:48:13.043Z,97911.52
2017-10-12T18:50:42.508Z,97913.61
2017-10-12T18:53:13.389Z,97912.73
2017-10-12T18:55:41.467Z,97919.92
2017-10-12T18:58:09.638Z,97920.32
2017-10-12T19:00:37.516Z,97923.69
2017-10-12T19:03:05.485Z,97920.66
2017-10-12T19:05:34.077Z,97935.83
2017-10-12T19:21:08.269Z,97953.52
2017-10-12T19:23:36.238Z,97955.16
2017-10-12T19:26:04.309Z,97955.98
2017-10-12T19:31:00.341Z,97956.45
2017-10-12T19:33:28.729Z,97959.42
2017-10-12T19:35:57.658Z,97960.77
2017-10-12T19:38:26.924Z,97962.49
2017-10-12T19:43:24.456Z,97963.34
2017-10-12T19:45:52.358Z,97966.31
2017-10-12T19:50:47.990Z,97964.98
2017-10-12T19:53:15.750Z,97963.66
2017-10-12T19:55:43.917Z,97957.24
2017-10-12T19:58:11.807Z,97960.61
2017-10-12T20:00:39.977Z,97968.16
2017-10-12T20:03:08.048Z,97968.91
2017-10-12T20:05:35.896Z,97970.53
2017-10-12T20:08:04.074Z,97969.98
2017-10-12T20:10:32.244Z,97970.74
2017-10-12T20:12:59.981Z,97971.55
2017-10-12T20:15:27.912Z,97974.90
2017-10-12T20:17:55.748Z,97973.57
2017-10-12T20:20:23.485Z,97985.41
2017-10-12T20:22:52.217Z,97978.61
2017-10-12T20:25:19.952Z,97981.97
2017-10-12T20:27:50.020Z,97981.55
2017-10-12T20:30:17.937Z,97974.69
2017-10-12T20:32:45.640Z,97981.47
2017-10-12T20:35:14.908Z,97989.09
2017-10-12T20:37:42.990Z,97986.53
2017-10-12T20:40:10.715Z,97991.63
2017-10-12T20:42:38.348Z,97997.52
2017-10-12T20:45:06.005Z,98005.08
2017-10-12T20:47:33.630Z,98001.59
2017-10-12T20:50:02.294Z,98000.62
2017-10-12T20:52:29.983Z,98000.52
2017-10-12T20:55:12.677Z,98003.87
2017-10-12T20:57:25.337Z,98002.16
2017-10-12T20:59:52.966Z,98004.25
2017-10-12T21:02:50.210Z,98012.28
2017-10-12T21:04:49.173Z,98017.38
2017-10-12T21:07:16.766Z,98009.69
2017-10-12T21:09:46.099Z,98016.02
2017-10-12T21:12:13.732Z,98023.16
2017-10-12T21:14:41.323Z,98022.70
2017-10-12T21:17:08.915Z,98023.91
2017-10-12T21:19:36.529Z,98022.96
2017-10-12T21:22:04.113Z,98025.45
2017-10-12T21:24:32.111Z,98021.98
2017-10-12T21:26:59.668Z,98032.13
2017-10-12T21:29:27.263Z,98022.36
2017-10-12T21:31:56.213Z,98025.28
2017-10-12T21:34:25.355Z,98034.12
2017-10-12T21:36:52.954Z,98029.84
2017-10-12T21:39:23.318Z,98037.88
2017-10-12T21:44:24.785Z,98038.28
2017-10-12T21:46:52.379Z,98040.39
2017-10-12T21:49:19.995Z,98041.20
2017-10-12T21:51:47.585Z,98044.58
2017-10-12T21:54:15.163Z,98043.71
2017-10-12T21:56:42.743Z,98043.22
2017-10-12T21:59:10.339Z,98044.86
2017-10-12T22:01:37.899Z,98043.88
2017-10-12T22:04:05.531Z,98039.97
2017-10-12T22:06:33.135Z,98048.73
2017-10-12T22:09:00.902Z,98040.13
2017-10-12T22:11:28.482Z,98048.52
2017-10-12T22:13:56.056Z,98048.92
2017-10-12T22:16:23.661Z,98048.92
2017-10-12T22:18:51.256Z,98054.88
2017-10-12T22:21:18.874Z,98055.24
2017-10-12T22:23:46.442Z,98056.11
2017-10-12T22:26:14.356Z,98063.73
2017-10-12T22:28:43.297Z,98060.70
2017-10-12T22:31:10.848Z,98057.63
2017-10-12T22:33:38.544Z,98059.23
2017-10-12T22:36:06.124Z,98062.14
2017-10-12T22:38:33.723Z,98067.69
2017-10-12T22:41:01.287Z,98070.23
2017-10-12T22:43:30.256Z,98068.06
2017-10-12T22:45:57.854Z,98065.52
2017-10-12T22:48:25.407Z,98068.06
2017-10-12T22:50:52.980Z,98066.36
2017-10-12T22:53:20.541Z,98063.75
2017-10-12T22:55:49.152Z,98060.24
2017-10-12T22:58:18.127Z,98059.38
2017-10-12T23:00:45.751Z,98062.75
2017-10-12T23:03:13.350Z,98054.27
2017-10-12T23:05:41.421Z,98051.66
2017-10-12T23:08:09.461Z,98056.54
2017-10-12T23:10:37.033Z,98054.30
2017-10-12T23:13:04.626Z,98054.59
2017-10-12T23:15:32.223Z,98064.75
2017-10-12T23:17:59.792Z,98064.32
2017-10-12T23:20:27.369Z,98060.11
2017-10-12T23:22:54.948Z,98058.41
2017-10-12T23:25:22.593Z,98055.73
2017-10-12T23:27:50.163Z,98059.88
2017-10-12T23:30:18.078Z,98058.27
2017-10-12T23:32:45.638Z,98051.48
2017-10-12T23:35:13.217Z,98056.20
2017-10-12T23:37:40.809Z,98063.38
2017-10-12T23:40:08.363Z,98065.89
2017-10-12T23:42:36.039Z,98067.39
2017-10-12T23:45:03.626Z,98068.66
2017-10-12T23:47:31.193Z,98073.30
2017-10-12T23:49:58.794Z,98074.17
2017-10-12T23:52:26.386Z,98069.02
2017-10-12T23:54:53.985Z,98064.37
2017-10-12T23:57:21.603Z,98071.52
2017-10-12T23:59:49.662Z,98073.16
